Country
Station

 

Weather  for  Memphis, Memphis International Airport  -  United States    United States

  
30 °C (86 °F)
    
 
 

Current METAR for Memphis, Memphis International Airport is :

KMEM 201954Z 26010G14KT 10SM BKN040 BKN055 30/21 A2985 RMK AO2 SLP104 T03000211

 

This is a report for Memphis, Memphis International Airport - United States.
 
The report was made 31 minutes ago, at 19:54 UTC .
The wind was blowing at a speed of 5.1 meters per second (11.5 miles per hour) with gusts up to 7.2 meters per second (16.1 miles per hour) from west (260°).
 
The temperature was 30 °C (86 °F), with a dew-point at 21 °C (70 °F).
The temperature felt like 33 °C (91 °F).
 
The atmospheric pressure was 1011 hPa (29.85 inHg).
The relative humidity was 58.6%.
 
There were broken clouds at a height of 1219 meters (4000 feet) and broken clouds at a height of 1676 meters (5500 feet).
 
The overall visibility was 16.1 kilometers (10.0 miles).
 

 
 
 
 

Country :   A   B   C   D   E   F   G   H   I   J   K   L   M   N   O   P   Q   R   S   T   U   V   W   Y   Z

 

Site Info  |  Disclaimer  |  Credits  |  Privacy
Contact us  |  Add to favorites
© 2013-2019 METARs - All rights reserved